createdAt,value
2018-03-15T00:07:56.712Z,88.08
2018-03-15T00:28:31.068Z,89.00
2018-03-15T00:49:04.189Z,89.17
2018-03-15T01:09:45.729Z,90.00
2018-03-15T01:30:20.566Z,90.33
2018-03-15T01:50:57.074Z,89.68
2018-03-15T02:11:30.190Z,89.33
2018-03-15T02:32:08.529Z,90.18
2018-03-15T02:52:48.720Z,89.99
2018-03-15T03:13:22.767Z,88.85
2018-03-15T03:34:00.191Z,90.02
2018-03-15T03:54:36.378Z,89.71
2018-03-15T04:15:10.735Z,89.45
2018-03-15T04:35:44.093Z,89.16
2018-03-15T04:56:22.191Z,89.27
2018-03-15T05:17:00.551Z,89.86
2018-03-15T05:37:35.510Z,89.80
2018-03-15T05:58:08.930Z,89.45
2018-03-15T06:18:45.125Z,89.03
2018-03-15T06:39:20.521Z,88.84
2018-03-15T06:59:54.441Z,87.54
2018-03-15T07:20:32.004Z,86.84
2018-03-15T07:59:06.653Z,85.20
2018-03-15T08:19:42.847Z,84.59
2018-03-15T08:40:19.391Z,84.26
2018-03-15T09:00:52.612Z,83.44
2018-03-15T09:21:28.683Z,82.20
2018-03-15T09:42:01.783Z,80.80
2018-03-15T10:02:33.982Z,80.33
2018-03-15T10:23:11.513Z,79.42
2018-03-15T10:43:45.455Z,77.64
2018-03-15T11:04:20.959Z,77.35
2018-03-15T11:24:53.848Z,76.80
2018-03-15T11:45:25.122Z,76.53
2018-03-15T12:06:03.634Z,75.18
2018-03-15T12:26:38.427Z,73.62
2018-03-15T12:47:16.771Z,72.85
2018-03-15T13:07:51.392Z,71.90
2018-03-15T13:28:28.258Z,72.32
2018-03-15T13:49:06.580Z,72.04
2018-03-15T14:09:42.783Z,71.95
2018-03-15T14:30:16.210Z,73.60
2018-03-15T14:50:49.326Z,74.05
2018-03-15T15:11:25.518Z,73.38
2018-03-15T15:32:00.792Z,75.36
2018-03-15T15:52:35.754Z,82.85
2018-03-15T16:13:07.035Z,87.91
2018-03-15T16:33:48.450Z,90.00
2018-03-15T16:54:22.494Z,89.64
2018-03-15T17:14:55.099Z,90.57
2018-03-15T17:35:30.330Z,90.95
2018-03-15T17:56:08.309Z,92.18
2018-03-15T18:16:45.845Z,93.03
2018-03-15T18:37:20.395Z,92.43
2018-03-15T18:57:55.049Z,93.27
2018-03-15T19:18:30.313Z,93.26
2018-03-15T19:39:05.279Z,93.66
2018-03-15T20:17:40.997Z,94.21
2018-03-15T20:38:17.922Z,94.30
2018-03-15T20:58:49.700Z,94.78
2018-03-15T21:19:24.047Z,93.93
2018-03-15T21:39:59.314Z,94.14
2018-03-15T22:00:35.505Z,94.10
2018-03-15T22:21:08.631Z,94.36
2018-03-15T22:41:45.260Z,94.74
2018-03-15T23:02:23.470Z,94.37
2018-03-15T23:22:57.519Z,95.06
2018-03-15T23:43:30.636Z,95.11
